createdAt,value
2022-10-18T00:01:09.600Z,6.38
2022-10-18T00:03:38.624Z,8.30
2022-10-18T00:06:09.091Z,5.78
2022-10-18T00:08:38.419Z,5.47
2022-10-18T00:11:07.541Z,6.03
2022-10-18T00:13:37.640Z,7.32
2022-10-18T00:16:10.896Z,6.80
2022-10-18T00:18:39.084Z,6.70
2022-10-18T00:21:09.594Z,6.43
2022-10-18T00:23:38.459Z,5.82
2022-10-18T00:26:09.292Z,6.75
2022-10-18T00:28:39.751Z,10.10
2022-10-18T00:31:12.537Z,6.90
2022-10-18T00:33:41.224Z,10.80
2022-10-18T00:36:09.461Z,9.15
2022-10-18T00:38:38.080Z,7.18
2022-10-18T00:41:08.446Z,8.60
2022-10-18T00:43:53.856Z,8.20
2022-10-18T00:46:22.132Z,11.25
2022-10-18T00:48:50.862Z,7.68
2022-10-18T00:51:21.724Z,7.18
2022-10-18T00:53:50.448Z,8.17
2022-10-18T00:56:19.127Z,7.30
2022-10-18T00:58:48.750Z,11.15
2022-10-18T01:01:18.655Z,9.23
2022-10-18T01:03:47.223Z,8.68
2022-10-18T01:06:15.418Z,7.15
2022-10-18T01:08:52.028Z,8.70
2022-10-18T01:11:35.582Z,13.95
2022-10-18T01:14:16.242Z,9.48
2022-10-18T01:16:50.466Z,11.00
2022-10-18T01:19:48.417Z,9.18
2022-10-18T01:22:23.384Z,8.80
2022-10-18T01:27:52.035Z,6.80
2022-10-18T01:30:44.494Z,8.00
2022-10-18T01:33:21.424Z,7.55
2022-10-18T01:35:54.529Z,10.82
2022-10-18T01:38:24.919Z,7.87
2022-10-18T01:40:54.396Z,8.30
2022-10-18T01:43:24.354Z,9.37
2022-10-18T01:45:55.872Z,10.07
2022-10-18T01:48:24.854Z,7.85
2022-10-18T01:50:54.087Z,5.63
2022-10-18T01:53:24.412Z,6.93
2022-10-18T01:56:02.843Z,6.30
2022-10-18T01:58:39.525Z,6.18
2022-10-18T02:01:14.799Z,8.45
2022-10-18T02:03:48.813Z,8.38
2022-10-18T02:06:22.782Z,6.47
2022-10-18T02:08:55.249Z,9.02
2022-10-18T02:11:23.652Z,6.40
2022-10-18T02:13:55.088Z,6.57
2022-10-18T02:16:29.557Z,6.82
2022-10-18T02:19:01.806Z,8.40
2022-10-18T02:21:31.812Z,8.15
2022-10-18T02:24:02.155Z,9.23
2022-10-18T02:26:31.117Z,7.33
2022-10-18T02:28:59.307Z,8.63
2022-10-18T02:31:34.282Z,12.13
2022-10-18T02:34:07.622Z,7.70
2022-10-18T02:36:39.682Z,8.20
2022-10-18T02:39:14.341Z,6.10
2022-10-18T02:41:43.349Z,8.73
2022-10-18T02:44:12.052Z,9.30
2022-10-18T02:46:42.221Z,9.48
2022-10-18T02:49:10.400Z,6.80
2022-10-18T02:51:38.541Z,7.00
2022-10-18T02:54:08.381Z,6.90
2022-10-18T02:56:37.251Z,8.05
2022-10-18T02:59:07.370Z,7.03
2022-10-18T03:01:36.259Z,7.68
2022-10-18T03:04:06.570Z,6.45
2022-10-18T03:06:35.030Z,8.65
2022-10-18T03:09:04.596Z,7.88
2022-10-18T03:11:33.064Z,9.70
2022-10-18T03:14:01.228Z,8.13
2022-10-18T03:16:29.646Z,10.00
2022-10-18T03:18:57.784Z,5.32
2022-10-18T03:21:27.375Z,7.70
2022-10-18T03:23:56.115Z,5.80
2022-10-18T03:26:24.263Z,6.72
2022-10-18T03:28:52.491Z,10.30
2022-10-18T03:31:20.879Z,6.57
2022-10-18T03:33:49.492Z,7.53
2022-10-18T03:36:17.953Z,7.30
2022-10-18T03:38:47.542Z,8.05
2022-10-18T03:41:15.761Z,9.23
2022-10-18T03:43:43.957Z,7.68
2022-10-18T03:46:12.105Z,9.15
2022-10-18T03:48:40.305Z,5.37
2022-10-18T03:51:08.517Z,8.88
2022-10-18T03:53:36.724Z,6.93
2022-10-18T03:56:06.802Z,8.15
2022-10-18T03:58:34.972Z,9.15
2022-10-18T04:01:03.209Z,6.30
2022-10-18T04:03:31.462Z,7.25
2022-10-18T04:06:00.841Z,7.90
2022-10-18T04:08:28.990Z,6.82
2022-10-18T04:10:57.178Z,6.05
2022-10-18T04:13:26.773Z,6.70
2022-10-18T04:15:54.950Z,5.50
2022-10-18T04:18:23.184Z,11.45
2022-10-18T04:20:51.397Z,7.10
2022-10-18T04:23:19.857Z,8.40
2022-10-18T04:25:48.027Z,10.27
2022-10-18T04:28:16.215Z,11.70
2022-10-18T04:30:49.966Z,8.23
2022-10-18T04:33:18.236Z,8.77
2022-10-18T04:35:46.989Z,6.05
2022-10-18T04:38:15.391Z,5.68
2022-10-18T04:40:43.543Z,8.35
2022-10-18T04:43:11.727Z,9.13
2022-10-18T04:45:39.880Z,7.63
2022-10-18T04:48:09.713Z,7.72
2022-10-18T04:50:37.877Z,16.30
2022-10-18T04:53:15.624Z,6.03
2022-10-18T04:55:46.205Z,9.50
2022-10-18T04:58:14.395Z,7.18
2022-10-18T05:00:43.489Z,10.93
2022-10-18T05:03:14.373Z,8.63
2022-10-18T05:06:00.950Z,10.20
2022-10-18T05:08:30.344Z,7.85
2022-10-18T05:10:58.584Z,8.40
2022-10-18T05:13:26.946Z,8.73
2022-10-18T05:15:55.226Z,11.13
2022-10-18T05:18:25.077Z,8.43
2022-10-18T05:20:53.324Z,7.82
2022-10-18T05:23:21.503Z,8.70
2022-10-18T05:25:49.729Z,9.48
2022-10-18T05:31:08.102Z,10.10
2022-10-18T05:33:37.801Z,8.30
2022-10-18T05:36:06.301Z,9.25
2022-10-18T05:41:07.725Z,14.27
2022-10-18T05:43:36.112Z,12.07
2022-10-18T05:46:06.505Z,9.65
2022-10-18T05:48:38.815Z,10.68
2022-10-18T05:51:08.017Z,11.13
2022-10-18T05:53:37.447Z,19.27
2022-10-18T05:56:07.029Z,14.30
2022-10-18T05:58:35.688Z,9.70
2022-10-18T06:01:05.719Z,13.40
2022-10-18T06:03:34.149Z,10.07
2022-10-18T06:06:05.005Z,9.95
2022-10-18T06:08:33.718Z,9.73
2022-10-18T06:11:07.146Z,9.70
2022-10-18T06:13:35.410Z,11.50
2022-10-18T06:16:03.526Z,13.57
2022-10-18T06:18:31.667Z,14.65
2022-10-18T06:21:00.698Z,9.20
2022-10-18T06:23:30.506Z,12.70
2022-10-18T06:26:00.455Z,8.80
2022-10-18T06:28:29.649Z,9.10
2022-10-18T06:30:58.430Z,10.30
2022-10-18T06:33:26.915Z,11.63
2022-10-18T06:35:59.689Z,13.68
2022-10-18T06:38:30.013Z,10.80
2022-10-18T06:40:59.109Z,17.73
2022-10-18T06:43:27.405Z,14.60
2022-10-18T06:45:56.019Z,14.02
2022-10-18T06:48:24.494Z,16.50
2022-10-18T06:50:57.306Z,14.67
2022-10-18T06:53:26.092Z,14.20
2022-10-18T06:56:00.912Z,18.00
2022-10-18T06:58:29.413Z,14.05
2022-10-18T07:00:57.777Z,13.13
2022-10-18T07:03:26.977Z,14.65
2022-10-18T07:05:55.177Z,15.55
2022-10-18T07:08:23.330Z,15.27
2022-10-18T07:10:56.087Z,18.70
2022-10-18T07:13:32.362Z,16.70
2022-10-18T07:16:03.043Z,17.45
2022-10-18T07:18:31.465Z,13.20
2022-10-18T07:21:02.743Z,24.42
2022-10-18T07:23:30.968Z,19.40
2022-10-18T07:26:00.921Z,16.27
2022-10-18T07:28:29.678Z,22.30
2022-10-18T07:31:01.207Z,17.25
2022-10-18T07:33:32.012Z,18.45
2022-10-18T07:36:02.464Z,20.83
2022-10-18T07:38:30.707Z,19.65
2022-10-18T07:41:01.291Z,23.20
2022-10-18T07:43:29.747Z,21.00
2022-10-18T07:45:59.920Z,22.33
2022-10-18T07:48:28.820Z,19.17
2022-10-18T07:50:59.808Z,19.35
2022-10-18T07:53:28.654Z,23.20
2022-10-18T07:56:02.448Z,20.58
2022-10-18T07:58:33.605Z,25.20
2022-10-18T08:01:04.430Z,27.63
2022-10-18T08:03:33.073Z,26.48
2022-10-18T08:06:01.533Z,27.20
2022-10-18T08:08:30.547Z,27.48
2022-10-18T08:11:05.632Z,26.33
2022-10-18T08:13:34.006Z,29.55
2022-10-18T08:16:03.084Z,29.48
2022-10-18T08:18:31.696Z,28.17
2022-10-18T08:21:01.916Z,30.13
2022-10-18T08:23:30.122Z,32.63
2022-10-18T08:25:58.338Z,34.17
2022-10-18T08:28:28.065Z,33.17
2022-10-18T08:30:56.279Z,32.58
2022-10-18T08:33:24.732Z,31.88
2022-10-18T08:35:56.507Z,27.30
2022-10-18T08:38:25.242Z,31.52
2022-10-18T08:40:53.681Z,34.03
2022-10-18T08:43:32.888Z,31.88
2022-10-18T08:46:01.644Z,33.20
2022-10-18T08:48:36.775Z,31.95
2022-10-18T08:51:07.909Z,34.25
2022-10-18T08:53:45.962Z,32.78
2022-10-18T08:56:15.545Z,30.35
2022-10-18T08:58:45.640Z,31.10
2022-10-18T09:01:26.333Z,32.55
2022-10-18T09:04:15.388Z,32.50
2022-10-18T09:06:50.417Z,33.08
2022-10-18T09:09:29.315Z,32.58
2022-10-18T09:12:09.996Z,36.25
2022-10-18T09:15:02.354Z,27.77
2022-10-18T09:17:40.071Z,32.70
2022-10-18T09:20:21.905Z,33.53
2022-10-18T09:22:56.549Z,32.22
2022-10-18T09:25:26.831Z,32.00
2022-10-18T09:27:58.225Z,32.38
2022-10-18T09:30:38.146Z,32.42
2022-10-18T09:33:19.557Z,33.30
2022-10-18T09:35:53.561Z,29.23
2022-10-18T09:41:03.411Z,32.80
2022-10-18T09:43:46.989Z,30.50
2022-10-18T09:46:18.207Z,28.85
2022-10-18T09:48:50.338Z,32.80
2022-10-18T09:51:22.776Z,33.10
2022-10-18T09:54:16.401Z,32.35
2022-10-18T09:56:49.113Z,33.88
2022-10-18T09:59:38.621Z,29.75
2022-10-18T10:02:13.197Z,29.38
2022-10-18T10:04:41.530Z,29.95
2022-10-18T10:07:13.178Z,28.35
2022-10-18T10:09:46.256Z,27.38
2022-10-18T10:12:31.137Z,25.83
2022-10-18T10:15:10.674Z,28.93
2022-10-18T10:17:40.186Z,27.02
2022-10-18T10:20:19.808Z,28.55
2022-10-18T10:22:49.017Z,27.02
2022-10-18T10:25:29.628Z,28.80
2022-10-18T10:28:04.271Z,28.60
2022-10-18T10:30:36.272Z,30.95
2022-10-18T10:33:07.309Z,30.57
2022-10-18T10:35:53.878Z,31.20
2022-10-18T10:38:26.512Z,28.88
2022-10-18T10:40:55.964Z,28.30
2022-10-18T10:43:42.773Z,26.70
2022-10-18T10:46:13.207Z,22.58
2022-10-18T10:48:50.610Z,28.23
2022-10-18T10:51:29.921Z,27.02
2022-10-18T10:54:03.312Z,22.45
2022-10-18T10:56:33.841Z,24.33
2022-10-18T10:59:11.244Z,22.33
2022-10-18T11:01:39.472Z,23.70
2022-10-18T11:04:28.186Z,28.03
2022-10-18T11:07:05.682Z,25.77
2022-10-18T11:09:43.602Z,20.90
2022-10-18T11:12:26.937Z,18.13
2022-10-18T11:15:10.146Z,23.20
2022-10-18T11:17:45.097Z,19.45
2022-10-18T11:20:22.102Z,21.60
2022-10-18T11:23:01.167Z,17.98
2022-10-18T11:25:49.197Z,17.15
2022-10-18T11:28:24.890Z,20.45
2022-10-18T11:31:09.221Z,20.63
2022-10-18T11:34:08.350Z,23.63
2022-10-18T11:37:08.927Z,26.73
2022-10-18T11:39:47.727Z,19.90
2022-10-18T11:42:25.852Z,15.63
2022-10-18T11:45:05.113Z,14.60
2022-10-18T11:47:40.519Z,14.90
2022-10-18T11:50:19.227Z,12.45
2022-10-18T11:52:57.468Z,10.60
2022-10-18T11:55:37.976Z,19.52
2022-10-18T11:58:25.349Z,9.15
2022-10-18T12:00:58.124Z,13.07
2022-10-18T12:03:38.643Z,13.47
2022-10-18T12:06:12.453Z,9.40
2022-10-18T12:08:45.543Z,12.55
2022-10-18T12:11:18.812Z,11.57
2022-10-18T12:13:50.543Z,12.27
2022-10-18T12:16:38.994Z,11.80
2022-10-18T12:19:23.432Z,11.80
2022-10-18T12:21:56.606Z,13.10
2022-10-18T12:24:28.913Z,15.40
2022-10-18T12:27:01.838Z,12.10
2022-10-18T12:29:38.173Z,9.10
2022-10-18T12:32:11.993Z,15.97
2022-10-18T12:34:44.724Z,20.20
2022-10-18T12:37:26.498Z,10.80
2022-10-18T12:40:18.844Z,18.90
2022-10-18T12:42:51.368Z,9.40
2022-10-18T12:45:30.248Z,12.10
2022-10-18T12:48:01.604Z,8.90
2022-10-18T12:50:34.786Z,10.93
2022-10-18T12:53:22.874Z,8.83
2022-10-18T12:55:53.820Z,13.18
2022-10-18T12:58:31.277Z,9.50
2022-10-18T13:01:02.314Z,10.23
2022-10-18T13:03:57.003Z,8.85
2022-10-18T13:06:25.713Z,8.50
2022-10-18T13:09:20.154Z,10.47
2022-10-18T13:11:51.046Z,9.53
2022-10-18T13:15:05.739Z,10.20
2022-10-18T13:17:47.256Z,10.18
2022-10-18T13:20:27.237Z,10.65
2022-10-18T13:23:11.304Z,9.88
2022-10-18T13:25:52.551Z,10.95
2022-10-18T13:28:31.292Z,6.90
2022-10-18T13:31:05.225Z,10.57
2022-10-18T13:33:36.020Z,10.40
2022-10-18T13:36:07.667Z,5.68
2022-10-18T13:38:42.256Z,10.35
2022-10-18T13:41:13.950Z,8.65
2022-10-18T13:44:28.374Z,7.93
2022-10-18T13:47:38.962Z,6.82
2022-10-18T13:50:33.995Z,6.10
2022-10-18T13:53:38.107Z,4.03
2022-10-18T13:56:26.367Z,7.68
2022-10-18T13:59:16.505Z,6.10
2022-10-18T14:01:59.178Z,6.82
2022-10-18T14:04:52.733Z,8.27
2022-10-18T14:07:21.768Z,3.65
2022-10-18T14:09:56.103Z,5.47
2022-10-18T14:12:31.941Z,4.95
2022-10-18T14:15:08.645Z,4.32
2022-10-18T14:17:42.804Z,5.43
2022-10-18T14:20:29.337Z,5.63
2022-10-18T14:23:05.145Z,6.80
2022-10-18T14:25:36.687Z,7.75
2022-10-18T14:28:10.104Z,5.53
2022-10-18T14:30:56.001Z,10.20
2022-10-18T14:33:33.703Z,5.47
2022-10-18T14:36:08.143Z,9.23
2022-10-18T14:38:45.592Z,7.50
2022-10-18T14:41:17.200Z,4.85
2022-10-18T14:43:46.636Z,5.50
2022-10-18T14:46:22.069Z,3.47
2022-10-18T14:48:56.170Z,7.60
2022-10-18T14:51:24.731Z,5.07
2022-10-18T14:53:53.744Z,3.25
2022-10-18T14:56:26.524Z,4.35
2022-10-18T14:58:56.743Z,2.05
2022-10-18T15:01:28.661Z,3.35
2022-10-18T15:03:59.818Z,2.83
2022-10-18T15:06:28.655Z,6.70
2022-10-18T15:08:58.828Z,4.40
2022-10-18T15:11:28.303Z,4.45
2022-10-18T15:13:58.965Z,4.00
2022-10-18T15:16:30.928Z,7.22
2022-10-18T15:19:06.942Z,5.88
2022-10-18T15:21:36.253Z,7.18
2022-10-18T15:24:33.036Z,4.00
2022-10-18T15:27:15.170Z,3.38
2022-10-18T15:29:44.364Z,4.55
2022-10-18T15:32:20.575Z,8.50
2022-10-18T15:34:50.272Z,3.47
2022-10-18T15:37:28.884Z,4.63
2022-10-18T15:40:19.637Z,4.35
2022-10-18T15:42:48.862Z,4.03
2022-10-18T15:45:32.525Z,8.52
2022-10-18T15:48:03.735Z,4.90
2022-10-18T15:50:44.467Z,6.90
2022-10-18T15:53:42.954Z,3.80
2022-10-18T15:56:31.481Z,7.57
2022-10-18T15:59:04.017Z,3.37
2022-10-18T16:01:39.020Z,3.95
2022-10-18T16:04:13.692Z,4.13
2022-10-18T16:06:43.235Z,2.37
2022-10-18T16:09:16.585Z,7.10
2022-10-18T16:11:44.915Z,10.70
2022-10-18T16:14:13.169Z,4.43
2022-10-18T16:16:42.101Z,7.68
2022-10-18T16:19:14.247Z,8.27
2022-10-18T16:21:43.912Z,5.18
2022-10-18T16:24:12.405Z,5.80
2022-10-18T16:26:40.481Z,5.97
2022-10-18T16:29:13.188Z,2.55
2022-10-18T16:31:41.595Z,6.95
2022-10-18T16:34:11.212Z,14.30
2022-10-18T16:36:39.769Z,29.77
2022-10-18T16:39:16.236Z,50.30
2022-10-18T16:41:44.743Z,43.05
2022-10-18T16:44:13.276Z,40.78
2022-10-18T16:46:41.958Z,23.63
2022-10-18T16:51:54.967Z,16.13
2022-10-18T16:54:24.738Z,15.80
2022-10-18T16:56:52.944Z,21.40
2022-10-18T16:59:25.261Z,11.77
2022-10-18T17:01:53.524Z,12.70
2022-10-18T17:04:21.840Z,14.68
2022-10-18T17:06:50.084Z,12.38
2022-10-18T17:09:18.205Z,11.85
2022-10-18T17:11:47.895Z,10.10
2022-10-18T17:14:16.030Z,11.02
2022-10-18T17:16:46.645Z,7.63
2022-10-18T17:19:18.228Z,7.63
2022-10-18T17:21:46.337Z,8.05
2022-10-18T17:24:14.502Z,7.82
2022-10-18T17:26:42.785Z,19.17
2022-10-18T17:29:12.410Z,7.80
2022-10-18T17:31:40.641Z,8.75
2022-10-18T17:34:09.023Z,5.75
2022-10-18T17:36:37.212Z,8.35
2022-10-18T17:39:06.235Z,6.35
2022-10-18T17:41:34.424Z,7.80
2022-10-18T17:44:03.995Z,8.00
2022-10-18T17:46:33.639Z,13.27
2022-10-18T17:49:01.769Z,8.10
2022-10-18T17:51:30.102Z,14.13
2022-10-18T17:53:58.237Z,20.52
2022-10-18T17:56:31.075Z,6.07
2022-10-18T17:58:59.256Z,7.05
2022-10-18T18:01:27.827Z,9.70
2022-10-18T18:03:59.690Z,7.07
2022-10-18T18:06:31.248Z,8.43
2022-10-18T18:09:00.275Z,16.90
2022-10-18T18:11:29.358Z,23.58
2022-10-18T18:13:57.872Z,22.47
2022-10-18T18:16:28.384Z,23.55
2022-10-18T18:18:59.280Z,19.08
2022-10-18T18:21:28.054Z,21.53
2022-10-18T18:23:56.500Z,24.60
2022-10-18T18:26:25.228Z,24.23
2022-10-18T18:28:54.036Z,24.43
2022-10-18T18:31:24.536Z,21.70
2022-10-18T18:33:53.387Z,25.08
2022-10-18T18:36:23.772Z,23.90
2022-10-18T18:38:56.889Z,23.38
2022-10-18T18:41:27.207Z,18.67
2022-10-18T18:43:57.648Z,20.45
2022-10-18T18:46:27.075Z,24.27
2022-10-18T18:48:55.736Z,21.92
2022-10-18T18:51:25.587Z,24.15
2022-10-18T18:53:54.259Z,14.80
2022-10-18T18:56:24.334Z,19.40
2022-10-18T18:58:53.616Z,14.43
2022-10-18T19:01:23.291Z,10.10
2022-10-18T19:03:53.065Z,22.85
2022-10-18T19:06:24.836Z,12.48
2022-10-18T19:09:00.276Z,10.48
2022-10-18T19:11:33.307Z,11.80
2022-10-18T19:14:01.639Z,12.00
2022-10-18T19:16:31.571Z,12.77
2022-10-18T19:19:01.483Z,13.82
2022-10-18T19:21:33.483Z,12.40
2022-10-18T19:24:02.085Z,26.08
2022-10-18T19:26:33.549Z,10.40
2022-10-18T19:29:04.908Z,9.00
2022-10-18T19:31:34.841Z,8.85
2022-10-18T19:34:03.829Z,8.23
2022-10-18T19:36:33.848Z,8.15
2022-10-18T19:39:02.508Z,6.57
2022-10-18T19:41:30.788Z,9.68
2022-10-18T19:43:59.147Z,10.85
2022-10-18T19:46:27.703Z,11.13
2022-10-18T19:48:56.068Z,6.60
2022-10-18T19:51:27.923Z,12.88
2022-10-18T19:53:58.914Z,5.03
2022-10-18T19:56:28.881Z,7.10
2022-10-18T19:58:57.532Z,8.27
2022-10-18T20:01:26.676Z,14.68
2022-10-18T20:03:55.804Z,7.10
2022-10-18T20:06:24.279Z,6.30
2022-10-18T20:08:52.756Z,8.70
2022-10-18T20:11:24.207Z,7.65
2022-10-18T20:13:53.127Z,8.45
2022-10-18T20:16:27.674Z,11.25
2022-10-18T20:18:57.575Z,8.05
2022-10-18T20:21:26.102Z,6.13
2022-10-18T20:23:54.301Z,8.70
2022-10-18T20:26:25.452Z,9.20
2022-10-18T20:28:56.813Z,8.50
2022-10-18T20:31:26.864Z,6.78
2022-10-18T20:33:56.958Z,8.90
2022-10-18T20:36:25.566Z,6.90
2022-10-18T20:38:54.871Z,5.10
2022-10-18T20:41:26.923Z,7.90
2022-10-18T20:43:56.859Z,9.35
2022-10-18T20:46:25.654Z,6.32
2022-10-18T20:48:55.149Z,9.88
2022-10-18T20:51:24.045Z,7.65
2022-10-18T20:53:53.342Z,13.50
2022-10-18T20:56:23.243Z,9.20
2022-10-18T20:58:55.119Z,6.70
2022-10-18T21:01:25.537Z,6.07
2022-10-18T21:03:55.894Z,5.88
2022-10-18T21:06:25.645Z,6.45
2022-10-18T21:08:55.545Z,18.98
2022-10-18T21:11:24.622Z,10.55
2022-10-18T21:13:55.850Z,6.43
2022-10-18T21:16:24.152Z,7.75
2022-10-18T21:18:52.393Z,11.35
2022-10-18T21:21:23.251Z,10.65
2022-10-18T21:23:52.100Z,11.23
2022-10-18T21:26:22.527Z,6.45
2022-10-18T21:28:51.645Z,6.40
2022-10-18T21:31:23.764Z,8.88
2022-10-18T21:33:55.157Z,7.55
2022-10-18T21:36:24.217Z,6.82
2022-10-18T21:38:52.921Z,8.75
2022-10-18T21:41:22.876Z,8.03
2022-10-18T21:43:52.265Z,9.48
2022-10-18T21:46:23.447Z,8.38
2022-10-18T21:48:53.180Z,11.10
2022-10-18T21:51:24.366Z,9.18
2022-10-18T21:53:54.216Z,10.35
2022-10-18T21:56:24.164Z,7.63
2022-10-18T21:58:52.374Z,8.57
2022-10-18T22:01:23.416Z,6.25
2022-10-18T22:03:54.318Z,9.88
2022-10-18T22:06:26.774Z,8.37
2022-10-18T22:08:56.095Z,7.28
2022-10-18T22:11:26.969Z,7.07
2022-10-18T22:13:56.027Z,7.43
2022-10-18T22:16:26.047Z,9.90
2022-10-18T22:18:57.921Z,6.95
2022-10-18T22:21:26.527Z,5.27
2022-10-18T22:23:57.128Z,8.18
2022-10-18T22:26:27.785Z,8.65
2022-10-18T22:28:57.774Z,10.02
2022-10-18T22:31:30.055Z,10.00
2022-10-18T22:34:00.380Z,7.00
2022-10-18T22:36:28.872Z,8.50
2022-10-18T22:38:57.479Z,8.38
2022-10-18T22:41:25.947Z,10.65
2022-10-18T22:43:57.305Z,8.90
2022-10-18T22:46:29.569Z,9.48
2022-10-18T22:48:57.821Z,5.70
2022-10-18T22:51:26.167Z,5.95
2022-10-18T22:53:54.369Z,8.85
2022-10-18T22:56:24.079Z,7.97
2022-10-18T22:58:52.867Z,6.85
2022-10-18T23:01:23.397Z,5.53
2022-10-18T23:03:55.433Z,10.82
2022-10-18T23:06:25.969Z,5.82
2022-10-18T23:08:55.600Z,6.38
2022-10-18T23:11:24.649Z,6.47
2022-10-18T23:13:53.162Z,8.13
2022-10-18T23:16:21.593Z,4.90
2022-10-18T23:18:56.014Z,6.20
2022-10-18T23:21:25.668Z,5.25
2022-10-18T23:23:54.850Z,5.68
2022-10-18T23:26:25.538Z,5.45
2022-10-18T23:28:54.462Z,7.40
2022-10-18T23:31:24.591Z,5.93
2022-10-18T23:33:54.443Z,6.30
2022-10-18T23:36:26.342Z,12.73
2022-10-18T23:38:54.915Z,6.30
2022-10-18T23:41:23.725Z,10.70
2022-10-18T23:43:52.500Z,6.00
2022-10-18T23:46:21.077Z,5.03
2022-10-18T23:48:49.719Z,5.43
2022-10-18T23:51:18.584Z,6.35
2022-10-18T23:53:48.598Z,6.38
2022-10-18T23:56:17.976Z,10.13
2022-10-18T23:58:47.153Z,5.65
